createdAt,value
2018-04-28T00:00:14.754Z,10.50
2018-04-28T00:02:15.886Z,10.50
2018-04-28T00:04:16.918Z,10.50
2018-04-28T00:06:17.955Z,10.50
2018-04-28T00:08:22.897Z,10.50
2018-04-28T00:10:23.893Z,10.50
2018-04-28T00:12:25.042Z,10.40
2018-04-28T00:14:26.036Z,10.40
2018-04-28T00:16:27.019Z,10.40
2018-04-28T00:18:27.998Z,10.40
2018-04-28T00:20:28.983Z,10.40
2018-04-28T00:22:33.576Z,10.40
2018-04-28T00:24:39.140Z,10.30
2018-04-28T00:26:41.858Z,10.30
2018-04-28T00:28:42.850Z,10.30
2018-04-28T00:30:43.818Z,10.30
2018-04-28T00:32:44.767Z,10.20
2018-04-28T00:34:56.958Z,10.20
2018-04-28T00:36:58.696Z,10.20
2018-04-28T00:39:00.682Z,10.20
2018-04-28T00:41:01.706Z,10.10
2018-04-28T00:43:02.694Z,10.00
2018-04-28T00:45:08.615Z,10.00
2018-04-28T00:47:16.642Z,10.00
2018-04-28T00:49:18.467Z,10.00
2018-04-28T00:51:20.551Z,10.00
2018-04-28T00:53:23.551Z,9.90
2018-04-28T00:55:44.394Z,9.90
2018-04-28T00:57:58.532Z,10.00
2018-04-28T01:00:00.397Z,9.90
2018-04-28T01:02:01.434Z,9.90
2018-04-28T01:06:47.751Z,9.90
2018-04-28T01:08:48.743Z,9.90
2018-04-28T01:10:49.715Z,9.90
2018-04-28T01:12:50.729Z,9.90
2018-04-28T01:14:57.947Z,10.00
2018-04-28T01:16:58.986Z,10.00
2018-04-28T01:19:00.933Z,10.00
2018-04-28T01:21:02.758Z,10.00
2018-04-28T01:23:06.403Z,10.00
2018-04-28T01:25:10.248Z,10.00
2018-04-28T01:27:14.198Z,10.00
2018-04-28T01:29:17.701Z,10.10
2018-04-28T01:31:22.353Z,10.00
2018-04-28T01:33:31.532Z,10.00
2018-04-28T01:35:38.643Z,10.00
2018-04-28T01:40:21.899Z,10.00
2018-04-28T01:42:38.163Z,10.00
2018-04-28T01:44:40.105Z,9.90
2018-04-28T01:46:42.036Z,9.90
2018-04-28T01:48:45.108Z,9.80
2018-04-28T01:50:53.178Z,9.80
2018-04-28T01:52:55.133Z,9.80
2018-04-28T01:55:03.041Z,9.80
2018-04-28T01:57:11.984Z,9.70
2018-04-28T01:59:13.039Z,9.80
2018-04-28T02:01:24.578Z,9.70
2018-04-28T02:03:38.613Z,9.70
2018-04-28T02:05:45.524Z,9.70
2018-04-28T02:07:47.618Z,9.70
2018-04-28T02:09:50.687Z,9.70
2018-04-28T02:11:57.588Z,9.60
2018-04-28T02:16:36.978Z,9.60
2018-04-28T02:18:38.876Z,9.60
2018-04-28T02:21:02.800Z,9.60
2018-04-28T02:23:09.634Z,9.50
2018-04-28T02:25:17.461Z,9.50
2018-04-28T02:27:20.241Z,9.40
2018-04-28T02:29:22.842Z,9.40
2018-04-28T02:31:28.863Z,9.40
2018-04-28T02:33:32.549Z,9.40
2018-04-28T02:35:54.707Z,9.40
2018-04-28T02:37:56.520Z,9.30
2018-04-28T02:40:08.663Z,9.30
2018-04-28T02:42:10.490Z,9.30
2018-04-28T02:44:19.447Z,9.30
2018-04-28T02:46:31.393Z,9.30
2018-04-28T02:51:21.798Z,9.30
2018-04-28T02:53:22.839Z,9.30
2018-04-28T02:58:20.815Z,9.20
2018-04-28T03:00:28.582Z,9.20
2018-04-28T03:02:46.486Z,9.20
2018-04-28T03:04:51.500Z,9.20
2018-04-28T03:06:56.063Z,9.20
2018-04-28T03:08:57.091Z,9.20
2018-04-28T03:10:59.020Z,9.10
2018-04-28T03:13:00.131Z,9.10
2018-04-28T03:15:01.144Z,9.10
2018-04-28T03:17:07.146Z,9.10
2018-04-28T03:19:14.162Z,9.10
2018-04-28T03:21:15.179Z,9.00
2018-04-28T03:23:25.695Z,9.00
2018-04-28T03:25:33.629Z,8.90
2018-04-28T03:30:06.135Z,8.80
2018-04-28T03:32:07.976Z,8.70
2018-04-28T03:34:38.926Z,8.70
2018-04-28T03:36:39.900Z,8.70
2018-04-28T03:38:41.853Z,8.40
2018-04-28T03:40:43.019Z,8.30
2018-04-28T03:42:44.744Z,8.30
2018-04-28T03:44:47.713Z,8.20
2018-04-28T03:46:51.459Z,8.20
2018-04-28T03:48:58.729Z,8.10
2018-04-28T03:51:06.473Z,8.10
2018-04-28T03:53:19.850Z,8.10
2018-04-28T03:55:20.874Z,8.10
2018-04-28T03:57:36.861Z,8.20
2018-04-28T03:59:50.776Z,8.20
2018-04-28T04:02:04.160Z,8.20
2018-04-28T04:07:05.275Z,8.30
2018-04-28T04:09:07.220Z,8.30
2018-04-28T04:11:21.327Z,8.40
2018-04-28T04:13:34.577Z,8.40
2018-04-28T04:15:42.713Z,8.40
2018-04-28T04:17:52.714Z,8.40
2018-04-28T04:23:14.833Z,8.50
2018-04-28T04:25:15.947Z,8.50
2018-04-28T04:27:16.965Z,8.60
2018-04-28T04:29:21.815Z,8.60
2018-04-28T04:31:34.658Z,8.60
2018-04-28T04:33:56.568Z,8.70
2018-04-28T04:36:06.359Z,8.70
2018-04-28T04:38:14.482Z,8.80
2018-04-28T04:43:13.044Z,8.90
2018-04-28T04:45:29.705Z,9.00
2018-04-28T04:47:35.502Z,9.00
2018-04-28T04:49:41.370Z,9.10
2018-04-28T04:54:29.830Z,9.20
2018-04-28T04:56:46.168Z,9.20
2018-04-28T04:58:47.894Z,9.20
2018-04-28T05:00:50.819Z,9.20
2018-04-28T05:03:06.777Z,9.30
2018-04-28T05:05:12.687Z,9.40
2018-04-28T05:09:50.817Z,9.50
2018-04-28T05:12:02.670Z,9.70
2018-04-28T05:14:22.294Z,9.90
2018-04-28T05:16:24.207Z,10.00
2018-04-28T05:18:37.348Z,10.20
2018-04-28T05:20:41.108Z,10.30
2018-04-28T05:23:07.140Z,10.40
2018-04-28T05:25:20.426Z,10.50
2018-04-28T05:27:42.358Z,10.60
2018-04-28T05:29:46.225Z,10.70
2018-04-28T05:31:59.455Z,10.80
2018-04-28T05:34:03.405Z,11.00
2018-04-28T05:36:15.236Z,11.30
2018-04-28T05:38:23.334Z,11.30
2018-04-28T05:40:36.696Z,11.50
2018-04-28T05:42:50.142Z,11.60
2018-04-28T05:44:55.989Z,11.70
2018-04-28T05:46:56.971Z,11.90
2018-04-28T05:48:58.922Z,11.90
2018-04-28T05:51:11.211Z,12.10
2018-04-28T05:53:24.621Z,12.20
2018-04-28T05:55:36.546Z,12.50
2018-04-28T05:57:50.838Z,12.60
2018-04-28T06:00:04.194Z,12.60
2018-04-28T06:02:27.175Z,12.90
2018-04-28T06:04:37.114Z,13.00
2018-04-28T06:06:40.989Z,13.10
2018-04-28T06:08:42.822Z,13.20
2018-04-28T06:10:45.594Z,13.30
2018-04-28T06:15:29.278Z,13.40
2018-04-28T06:17:32.218Z,13.50
2018-04-28T06:19:41.439Z,13.60
2018-04-28T06:21:43.131Z,13.50
2018-04-28T06:23:44.093Z,13.50
2018-04-28T06:25:45.022Z,13.40
2018-04-28T06:27:45.994Z,13.30
2018-04-28T06:29:46.971Z,13.30
2018-04-28T06:31:48.668Z,13.30
2018-04-28T06:33:49.619Z,13.20
2018-04-28T06:35:50.583Z,13.20
2018-04-28T06:37:51.542Z,13.20
2018-04-28T06:39:52.502Z,13.20
2018-04-28T06:41:53.447Z,13.20
2018-04-28T06:43:54.402Z,13.30
2018-04-28T06:45:55.349Z,13.40
2018-04-28T06:47:56.850Z,13.60
2018-04-28T06:49:57.821Z,13.80
2018-04-28T06:51:58.774Z,13.90
2018-04-28T06:53:59.712Z,13.90
2018-04-28T06:56:00.653Z,14.00
2018-04-28T06:58:01.622Z,14.00
2018-04-28T07:00:02.594Z,13.90
2018-04-28T07:02:04.294Z,13.70
2018-04-28T07:04:05.246Z,13.70
2018-04-28T07:06:06.186Z,13.70
2018-04-28T07:08:07.149Z,13.80
2018-04-28T07:10:08.238Z,14.20
2018-04-28T07:12:09.920Z,14.90
2018-04-28T07:14:10.880Z,14.90
2018-04-28T07:16:11.854Z,15.40
2018-04-28T07:18:12.858Z,15.70
2018-04-28T07:20:13.827Z,15.90
2018-04-28T07:22:14.786Z,15.80
2018-04-28T07:24:15.790Z,15.40
2018-04-28T07:26:17.487Z,15.30
2018-04-28T07:28:19.206Z,15.30
2018-04-28T07:30:20.900Z,15.90
2018-04-28T07:32:22.025Z,15.90
2018-04-28T07:34:23.717Z,16.20
2018-04-28T07:36:24.651Z,16.20
2018-04-28T07:38:25.593Z,16.20
2018-04-28T07:40:26.548Z,16.50
2018-04-28T07:42:27.498Z,16.70
2018-04-28T07:44:28.471Z,16.50
2018-04-28T07:46:29.441Z,16.60
2018-04-28T07:48:30.416Z,16.80
2018-04-28T07:50:31.381Z,16.80
2018-04-28T07:52:32.318Z,16.70
2018-04-28T07:54:33.241Z,17.00
2018-04-28T07:56:34.945Z,17.30
2018-04-28T07:58:35.882Z,17.30
2018-04-28T08:00:36.860Z,17.40
2018-04-28T08:02:37.810Z,17.40
2018-04-28T08:04:38.781Z,17.50
2018-04-28T08:06:39.728Z,17.50
2018-04-28T08:08:41.429Z,17.80
2018-04-28T08:10:42.392Z,17.80
2018-04-28T08:12:43.346Z,17.80
2018-04-28T08:14:44.290Z,17.80
2018-04-28T08:16:45.265Z,17.90
2018-04-28T08:18:46.202Z,17.70
2018-04-28T08:20:47.200Z,17.70
2018-04-28T08:22:48.108Z,17.50
2018-04-28T08:24:49.063Z,17.40
2018-04-28T08:26:50.760Z,17.50
2018-04-28T08:28:52.634Z,17.50
2018-04-28T08:30:53.606Z,17.50
2018-04-28T08:32:54.563Z,17.40
2018-04-28T08:34:55.523Z,17.60
2018-04-28T08:36:56.499Z,17.40
2018-04-28T08:38:58.173Z,17.40
2018-04-28T08:40:59.126Z,17.40
2018-04-28T08:43:00.090Z,17.50
2018-04-28T08:45:01.074Z,17.60
2018-04-28T08:47:02.978Z,18.00
2018-04-28T08:49:03.926Z,18.00
2018-04-28T08:51:05.595Z,18.10
2018-04-28T08:53:06.521Z,18.10
2018-04-28T08:55:07.533Z,18.10
2018-04-28T08:57:08.486Z,18.30
2018-04-28T08:59:09.504Z,18.50
2018-04-28T09:01:10.483Z,18.80
2018-04-28T09:03:12.177Z,19.10
2018-04-28T09:05:13.110Z,19.00
2018-04-28T09:07:23.210Z,19.20
2018-04-28T09:09:24.225Z,18.60
2018-04-28T09:11:25.219Z,18.60
2018-04-28T09:13:26.166Z,18.50
2018-04-28T09:15:27.129Z,18.80
2018-04-28T09:17:28.101Z,18.80
2018-04-28T09:19:29.138Z,18.90
2018-04-28T09:21:30.005Z,19.00
2018-04-28T09:23:31.013Z,18.40
2018-04-28T09:25:33.194Z,18.00
2018-04-28T09:27:34.175Z,17.80
2018-04-28T09:29:35.145Z,18.10
2018-04-28T09:31:36.150Z,18.60
2018-04-28T09:33:37.134Z,18.80
2018-04-28T09:35:38.154Z,19.40
2018-04-28T09:37:39.099Z,19.80
2018-04-28T09:39:40.165Z,19.20
2018-04-28T09:41:41.148Z,19.00
2018-04-28T09:43:42.137Z,19.30
2018-04-28T09:45:43.120Z,18.70
2018-04-28T09:47:44.261Z,18.90
2018-04-28T09:49:45.235Z,18.60
2018-04-28T09:51:46.192Z,18.30
2018-04-28T09:53:47.150Z,18.20
2018-04-28T09:55:48.850Z,17.70
2018-04-28T09:58:02.902Z,17.70
2018-04-28T10:00:16.301Z,17.40
2018-04-28T10:02:17.249Z,17.50
2018-04-28T10:04:18.960Z,17.90
2018-04-28T10:06:19.928Z,17.90
2018-04-28T10:08:20.871Z,17.70
2018-04-28T10:10:21.838Z,17.50
2018-04-28T10:12:22.804Z,17.40
2018-04-28T10:14:24.484Z,18.10
2018-04-28T10:16:25.462Z,18.10
2018-04-28T10:18:26.401Z,18.80
2018-04-28T10:20:27.454Z,19.20
2018-04-28T10:22:28.306Z,19.30
2018-04-28T10:24:29.263Z,19.80
2018-04-28T10:26:30.207Z,18.90
2018-04-28T10:28:31.166Z,18.50
2018-04-28T10:30:32.174Z,18.60
2018-04-28T10:32:33.135Z,18.10
2018-04-28T10:34:34.081Z,18.10
2018-04-28T10:36:35.029Z,18.10
2018-04-28T10:38:35.976Z,18.10
2018-04-28T10:40:36.933Z,18.20
2018-04-28T10:42:37.877Z,18.40
2018-04-28T10:44:38.816Z,18.30
2018-04-28T10:46:39.778Z,18.30
2018-04-28T10:48:40.714Z,18.40
2018-04-28T10:50:41.662Z,18.40
2018-04-28T10:52:42.618Z,18.30
2018-04-28T10:54:43.553Z,19.50
2018-04-28T10:56:44.501Z,20.40
2018-04-28T10:58:45.454Z,20.80
2018-04-28T11:00:46.381Z,20.60
2018-04-28T11:02:47.335Z,20.40
2018-04-28T11:04:48.276Z,21.20
2018-04-28T11:06:49.312Z,21.70
2018-04-28T11:08:50.208Z,20.40
2018-04-28T11:10:51.206Z,20.00
2018-04-28T11:12:52.162Z,19.60
2018-04-28T11:14:53.096Z,19.20
2018-04-28T11:16:54.039Z,19.40
2018-04-28T11:18:54.982Z,19.40
2018-04-28T11:20:55.963Z,19.30
2018-04-28T11:22:56.909Z,19.40
2018-04-28T11:24:57.850Z,19.30
2018-04-28T11:26:58.803Z,19.50
2018-04-28T11:29:00.508Z,19.10
2018-04-28T11:31:01.463Z,19.10
2018-04-28T11:33:02.485Z,18.90
2018-04-28T11:35:03.590Z,18.70
2018-04-28T11:37:04.535Z,19.00
2018-04-28T11:39:05.482Z,19.10
2018-04-28T11:41:06.447Z,19.60
2018-04-28T11:43:08.159Z,20.00
2018-04-28T11:45:09.111Z,20.00
2018-04-28T11:47:10.038Z,19.30
2018-04-28T11:49:10.971Z,19.20
2018-04-28T11:51:11.931Z,19.20
2018-04-28T11:53:12.885Z,19.00
2018-04-28T11:55:13.848Z,18.60
2018-04-28T11:57:14.804Z,18.70
2018-04-28T11:59:15.829Z,18.60
2018-04-28T12:01:16.769Z,18.60
2018-04-28T12:03:17.725Z,18.80
2018-04-28T12:05:18.670Z,18.80
2018-04-28T12:07:19.602Z,18.80
2018-04-28T12:09:20.529Z,18.90
2018-04-28T12:11:21.465Z,19.10
2018-04-28T12:13:23.150Z,19.00
2018-04-28T12:15:24.108Z,19.00
2018-04-28T12:17:25.044Z,19.10
2018-04-28T12:19:26.001Z,19.00
2018-04-28T12:21:26.949Z,20.00
2018-04-28T12:23:27.901Z,19.50
2018-04-28T12:25:28.852Z,19.20
2018-04-28T12:27:29.799Z,18.90
2018-04-28T12:29:30.729Z,18.60
2018-04-28T12:31:32.405Z,18.30
2018-04-28T12:33:33.346Z,18.20
2018-04-28T12:35:34.281Z,19.10
2018-04-28T12:37:35.236Z,19.20
2018-04-28T12:39:36.169Z,19.00
2018-04-28T12:41:37.105Z,19.10
2018-04-28T12:43:38.053Z,18.90
2018-04-28T12:45:38.990Z,19.30
2018-04-28T12:47:39.926Z,19.60
2018-04-28T12:49:40.893Z,20.20
2018-04-28T12:51:42.552Z,21.20
2018-04-28T12:53:43.501Z,21.10
2018-04-28T12:55:44.455Z,20.90
2018-04-28T12:57:45.419Z,20.80
2018-04-28T12:59:46.586Z,20.40
2018-04-28T13:01:47.534Z,20.20
2018-04-28T13:03:48.530Z,20.30
2018-04-28T13:05:49.469Z,19.90
2018-04-28T13:07:50.423Z,19.80
2018-04-28T13:09:51.389Z,20.30
2018-04-28T13:11:52.329Z,20.10
2018-04-28T13:13:53.280Z,19.70
2018-04-28T13:15:54.242Z,19.80
2018-04-28T13:17:55.180Z,19.70
2018-04-28T13:19:56.113Z,20.80
2018-04-28T13:21:57.050Z,20.40
2018-04-28T13:23:58.006Z,20.90
2018-04-28T13:25:58.963Z,20.70
2018-04-28T13:27:59.909Z,21.50
2018-04-28T13:30:00.857Z,21.00
2018-04-28T13:32:01.820Z,20.40
2018-04-28T13:34:02.782Z,20.20
2018-04-28T13:36:04.923Z,20.50
2018-04-28T13:38:05.919Z,20.50
2018-04-28T13:40:06.865Z,20.60
2018-04-28T13:42:07.802Z,20.80
2018-04-28T13:44:09.489Z,20.10
2018-04-28T13:46:10.428Z,20.10
2018-04-28T13:48:11.374Z,19.90
2018-04-28T13:50:12.299Z,19.30
2018-04-28T13:52:13.970Z,19.50
2018-04-28T13:54:14.917Z,19.50
2018-04-28T13:56:15.881Z,19.40
2018-04-28T13:58:16.850Z,19.70
2018-04-28T14:00:17.786Z,19.50
2018-04-28T14:02:18.738Z,19.70
2018-04-28T14:04:19.687Z,19.80
2018-04-28T14:06:20.618Z,19.70
2018-04-28T14:08:21.587Z,19.80
2018-04-28T14:10:22.512Z,19.90
2018-04-28T14:12:23.450Z,20.00
2018-04-28T14:14:24.444Z,20.00
2018-04-28T14:16:25.373Z,20.20
2018-04-28T14:18:26.348Z,20.10
2018-04-28T14:20:28.027Z,19.80
2018-04-28T14:22:28.980Z,19.90
2018-04-28T14:24:29.933Z,19.80
2018-04-28T14:26:30.866Z,19.90
2018-04-28T14:28:31.830Z,20.10
2018-04-28T14:30:32.762Z,20.30
2018-04-28T14:32:33.694Z,20.40
2018-04-28T14:34:35.369Z,20.70
2018-04-28T14:36:36.290Z,20.70
2018-04-28T14:38:37.225Z,20.50
2018-04-28T14:40:38.151Z,20.90
2018-04-28T14:42:39.100Z,21.10
2018-04-28T14:44:40.038Z,21.10
2018-04-28T14:46:40.986Z,21.20
2018-04-28T14:48:41.938Z,21.30
2018-04-28T14:50:42.882Z,21.30
2018-04-28T14:52:43.914Z,20.90
2018-04-28T14:54:44.781Z,20.30
2018-04-28T14:56:45.731Z,20.00
2018-04-28T14:58:46.665Z,19.90
2018-04-28T15:00:47.608Z,19.70
2018-04-28T15:02:48.545Z,19.60
2018-04-28T15:04:49.481Z,19.90
2018-04-28T15:06:50.401Z,19.80
2018-04-28T15:08:51.377Z,19.80
2018-04-28T15:10:52.321Z,19.70
2018-04-28T15:12:53.303Z,19.60
2018-04-28T15:14:54.253Z,19.60
2018-04-28T15:16:55.935Z,19.70
2018-04-28T15:18:56.903Z,19.70
2018-04-28T15:20:57.821Z,19.60
2018-04-28T15:22:58.773Z,19.60
2018-04-28T15:24:59.734Z,19.80
2018-04-28T15:27:00.683Z,19.80
2018-04-28T15:29:01.659Z,19.90
2018-04-28T15:31:02.593Z,19.80
2018-04-28T15:33:03.521Z,19.60
2018-04-28T15:35:04.471Z,19.50
2018-04-28T15:37:05.415Z,19.70
2018-04-28T15:39:06.416Z,20.00
2018-04-28T15:41:08.132Z,20.20
2018-04-28T15:43:09.806Z,20.10
2018-04-28T15:45:10.733Z,20.10
2018-04-28T15:47:11.657Z,20.00
2018-04-28T15:49:12.598Z,20.00
2018-04-28T15:51:13.542Z,20.20
2018-04-28T15:53:14.501Z,20.20
2018-04-28T15:55:15.503Z,20.20
2018-04-28T15:57:16.392Z,20.10
2018-04-28T15:59:17.333Z,19.90
2018-04-28T16:01:18.255Z,19.90
2018-04-28T16:03:19.945Z,19.60
2018-04-28T16:05:20.899Z,19.50
2018-04-28T16:07:21.847Z,19.50
2018-04-28T16:09:22.815Z,19.50
2018-04-28T16:11:23.770Z,19.50
2018-04-28T16:13:24.714Z,19.40
2018-04-28T16:15:25.637Z,19.40
2018-04-28T16:17:26.592Z,19.40
2018-04-28T16:19:27.557Z,19.40
2018-04-28T16:21:28.508Z,19.40
2018-04-28T16:23:29.450Z,19.30
2018-04-28T16:25:30.385Z,19.20
2018-04-28T16:27:31.408Z,19.20
2018-04-28T16:29:32.275Z,19.10
2018-04-28T16:31:33.212Z,19.20
2018-04-28T16:33:34.134Z,19.20
2018-04-28T16:35:35.081Z,19.10
2018-04-28T16:37:36.047Z,19.10
2018-04-28T16:39:36.998Z,19.00
2018-04-28T16:41:37.985Z,18.90
2018-04-28T16:43:39.668Z,18.80
2018-04-28T16:45:40.601Z,18.80
2018-04-28T16:47:42.277Z,18.70
2018-04-28T16:49:43.266Z,18.70
2018-04-28T16:51:44.313Z,18.70
2018-04-28T16:53:45.258Z,18.70
2018-04-28T16:55:46.199Z,18.70
2018-04-28T16:57:47.145Z,18.60
2018-04-28T16:59:48.083Z,18.60
2018-04-28T17:01:48.997Z,18.50
2018-04-28T17:03:50.003Z,18.50
2018-04-28T17:05:50.891Z,18.40
2018-04-28T17:07:51.822Z,18.40
2018-04-28T17:09:52.749Z,18.50
2018-04-28T17:11:53.686Z,18.40
2018-04-28T17:13:54.621Z,18.30
2018-04-28T17:15:55.630Z,18.30
2018-04-28T17:17:56.645Z,18.30
2018-04-28T17:19:58.418Z,18.10
2018-04-28T17:21:59.357Z,18.10
2018-04-28T17:24:01.038Z,17.90
2018-04-28T17:26:02.013Z,17.90
2018-04-28T17:28:02.949Z,17.80
2018-04-28T17:30:03.881Z,17.80
2018-04-28T17:32:05.574Z,17.70
2018-04-28T17:34:06.549Z,17.70
2018-04-28T17:36:07.508Z,17.60
2018-04-28T17:38:09.174Z,17.50
2018-04-28T17:40:10.853Z,17.40
2018-04-28T17:42:11.842Z,17.40
2018-04-28T17:44:13.544Z,17.30
2018-04-28T17:46:15.222Z,17.30
2018-04-28T17:48:16.154Z,17.30
2018-04-28T17:50:17.841Z,17.10
2018-04-28T17:52:18.799Z,17.20
2018-04-28T17:54:19.738Z,17.10
2018-04-28T17:56:20.666Z,17.10
2018-04-28T17:58:21.634Z,17.10
2018-04-28T18:00:22.589Z,17.00
2018-04-28T18:02:23.573Z,17.00
2018-04-28T18:04:24.517Z,17.00
2018-04-28T18:06:25.484Z,17.00
2018-04-28T18:08:27.164Z,16.80
2018-04-28T18:10:28.093Z,16.80
2018-04-28T18:12:29.855Z,16.70
2018-04-28T18:14:30.960Z,16.70
2018-04-28T18:16:32.032Z,16.70
2018-04-28T18:18:33.090Z,16.60
2018-04-28T18:20:34.803Z,16.40
2018-04-28T18:22:35.794Z,16.40
2018-04-28T18:24:36.779Z,16.40
2018-04-28T18:26:37.836Z,16.30
2018-04-28T18:28:38.820Z,16.30
2018-04-28T18:30:39.862Z,16.20
2018-04-28T18:32:41.010Z,16.20
2018-04-28T18:34:42.022Z,16.10
2018-04-28T18:36:43.003Z,16.10
2018-04-28T18:38:44.026Z,16.00
2018-04-28T18:40:45.065Z,15.90
2018-04-28T18:42:46.029Z,15.90
2018-04-28T18:44:47.131Z,15.90
2018-04-28T18:46:48.885Z,15.90
2018-04-28T18:48:49.913Z,15.90
2018-04-28T18:50:51.007Z,15.90
2018-04-28T18:52:51.963Z,15.90
2018-04-28T18:54:53.038Z,15.90
2018-04-28T18:56:54.011Z,15.90
2018-04-28T18:58:55.150Z,15.70
2018-04-28T19:00:56.121Z,15.70
2018-04-28T19:02:57.916Z,15.70
2018-04-28T19:04:58.878Z,15.70
2018-04-28T19:06:59.831Z,15.70
2018-04-28T19:09:00.833Z,15.70
2018-04-28T19:11:01.918Z,15.60
2018-04-28T19:13:02.902Z,15.60
2018-04-28T19:15:03.921Z,15.60
2018-04-28T19:17:05.035Z,15.50
2018-04-28T19:19:06.010Z,15.50
2018-04-28T19:21:06.987Z,15.40
2018-04-28T19:23:08.039Z,15.40
2018-04-28T19:25:09.097Z,15.40
2018-04-28T19:27:10.224Z,15.40
2018-04-28T19:29:11.190Z,15.40
2018-04-28T19:31:12.242Z,15.40
2018-04-28T19:33:13.262Z,15.40
2018-04-28T19:35:14.347Z,15.40
2018-04-28T19:37:16.100Z,15.40
2018-04-28T19:39:17.163Z,15.40
2018-04-28T19:41:18.909Z,15.40
2018-04-28T19:43:19.895Z,15.40
2018-04-28T19:45:20.878Z,15.30
2018-04-28T19:47:21.946Z,15.30
2018-04-28T19:49:22.906Z,15.30
2018-04-28T19:51:23.852Z,15.20
2018-04-28T19:53:25.705Z,15.20
2018-04-28T19:55:26.662Z,15.20
2018-04-28T19:57:27.844Z,15.20
2018-04-28T19:59:28.860Z,15.20
2018-04-28T20:01:30.613Z,15.10
2018-04-28T20:03:31.609Z,15.10
2018-04-28T20:05:32.628Z,15.10
2018-04-28T20:07:33.682Z,15.10
2018-04-28T20:09:34.715Z,15.00
2018-04-28T20:11:35.732Z,14.90
2018-04-28T20:13:36.797Z,15.00
2018-04-28T20:15:37.792Z,14.90
2018-04-28T20:17:38.753Z,15.00
2018-04-28T20:19:39.741Z,15.00
2018-04-28T20:21:40.779Z,14.80
2018-04-28T20:23:54.083Z,14.70
2018-04-28T20:25:55.077Z,14.70
2018-04-28T20:27:56.063Z,14.70
2018-04-28T20:29:57.091Z,14.80
2018-04-28T20:31:58.805Z,14.70
2018-04-28T20:33:59.787Z,14.70
2018-04-28T20:36:00.831Z,14.70
2018-04-28T20:38:01.819Z,14.70
2018-04-28T20:40:02.977Z,14.70
2018-04-28T20:42:03.975Z,14.70
2018-04-28T20:44:04.954Z,14.70
2018-04-28T20:46:06.042Z,14.70
2018-04-28T20:48:07.120Z,14.60
2018-04-28T20:50:08.883Z,14.70
2018-04-28T20:52:09.867Z,14.70
2018-04-28T20:54:10.933Z,14.60
2018-04-28T20:56:11.989Z,14.60
2018-04-28T20:58:13.076Z,14.60
2018-04-28T21:00:14.170Z,14.60
2018-04-28T21:02:15.196Z,14.60
2018-04-28T21:04:16.203Z,14.50
2018-04-28T21:06:17.179Z,14.50
2018-04-28T21:08:18.943Z,14.40
2018-04-28T21:10:19.984Z,14.40
2018-04-28T21:12:20.950Z,14.40
2018-04-28T21:14:22.789Z,14.30
2018-04-28T21:16:23.878Z,14.30
2018-04-28T21:18:24.907Z,14.30
2018-04-28T21:20:26.632Z,14.20
2018-04-28T21:22:27.622Z,14.20
2018-04-28T21:24:28.698Z,14.20
2018-04-28T21:26:29.610Z,14.20
2018-04-28T21:28:31.381Z,14.30
2018-04-28T21:30:32.392Z,14.20
2018-04-28T21:32:33.406Z,14.30
2018-04-28T21:34:34.428Z,14.30
2018-04-28T21:36:35.501Z,14.30
2018-04-28T21:38:36.496Z,14.30
2018-04-28T21:40:38.196Z,14.20
2018-04-28T21:42:40.196Z,14.20
2018-04-28T21:44:41.255Z,14.20
2018-04-28T21:46:42.272Z,14.20
2018-04-28T21:48:44.033Z,14.10
2018-04-28T21:50:45.187Z,14.10
2018-04-28T21:52:46.219Z,14.10
2018-04-28T21:54:47.266Z,14.10
2018-04-28T21:56:48.251Z,14.10
2018-04-28T21:58:49.288Z,13.90
2018-04-28T22:00:50.422Z,13.90
2018-04-28T22:02:51.471Z,13.90
2018-04-28T22:04:53.317Z,13.80
2018-04-28T22:06:54.343Z,13.80
2018-04-28T22:08:55.354Z,13.80
2018-04-28T22:10:56.424Z,13.80
2018-04-28T22:12:57.391Z,13.70
2018-04-28T22:14:59.094Z,13.80
2018-04-28T22:17:00.136Z,13.80
2018-04-28T22:19:01.134Z,13.80
2018-04-28T22:21:02.144Z,13.80
2018-04-28T22:23:03.128Z,13.80
2018-04-28T22:25:04.177Z,13.90
2018-04-28T22:27:05.117Z,13.90
2018-04-28T22:29:06.123Z,13.80
2018-04-28T22:31:07.157Z,13.80
2018-04-28T22:33:08.134Z,13.70
2018-04-28T22:35:09.139Z,13.70
2018-04-28T22:37:10.466Z,13.70
2018-04-28T22:39:11.434Z,13.80
2018-04-28T22:41:13.163Z,13.70
2018-04-28T22:43:14.188Z,13.80
2018-04-28T22:45:15.274Z,13.80
2018-04-28T22:47:16.255Z,13.80
2018-04-28T22:49:17.269Z,13.80
2018-04-28T22:51:18.275Z,13.80
2018-04-28T22:53:20.058Z,13.70
2018-04-28T22:55:21.049Z,13.70
2018-04-28T22:57:22.051Z,13.80
2018-04-28T22:59:23.102Z,13.70
2018-04-28T23:01:24.159Z,13.70
2018-04-28T23:03:25.131Z,13.70
2018-04-28T23:05:26.089Z,13.70
2018-04-28T23:07:27.115Z,13.70
2018-04-28T23:09:28.836Z,13.60
2018-04-28T23:11:29.889Z,13.60
2018-04-28T23:13:30.938Z,13.70
2018-04-28T23:15:31.897Z,13.70
2018-04-28T23:17:32.857Z,13.70
2018-04-28T23:19:33.831Z,13.70
2018-04-28T23:21:34.891Z,13.60
2018-04-28T23:23:35.822Z,13.60
2018-04-28T23:25:36.866Z,13.60
2018-04-28T23:27:38.590Z,13.60
2018-04-28T23:29:39.751Z,13.50
2018-04-28T23:31:41.536Z,13.60
2018-04-28T23:33:43.283Z,13.60
2018-04-28T23:35:44.251Z,13.60
2018-04-28T23:37:45.961Z,13.50
2018-04-28T23:39:47.417Z,13.50
2018-04-28T23:41:48.443Z,13.50
2018-04-28T23:43:49.649Z,13.50
2018-04-28T23:45:50.595Z,13.50
2018-04-28T23:47:51.558Z,13.50
2018-04-28T23:49:52.595Z,13.50
2018-04-28T23:51:53.550Z,13.40
2018-04-28T23:53:55.302Z,13.50
2018-04-28T23:55:56.317Z,13.50
2018-04-28T23:57:57.381Z,13.50
2018-04-28T23:59:58.455Z,13.40
